Time;durP1;ratioP1;P1;durP2;ratioP2;P2;SDS_P1;SDS_P2;PMS_P1;PMS_P2;Temp;Humidity;BMP_temperature;BMP_pressure;BME280_temperature;BME280_humidity;BME280_pressure;Samples;Min_cycle;Max_cycle;Signal;HPM_P1;HPM_P2
2021/03/26 00:06:35;;;;;;;88.35;54.00;;;;;;;3.36;67.30;99989.66;470349;1171;114209;-63
2021/03/26 00:16:39;;;;;;;85.57;53.57;;;;;;;3.13;67.51;99999.82;470335;1173;114074;-65
2021/03/26 00:26:43;;;;;;;87.17;53.93;;;;;;;2.95;68.10;99991.65;470575;1171;114024;-63
2021/03/26 00:36:55;;;;;;;85.47;52.20;;;;;;;2.79;68.36;99986.00;470332;1171;114619;-66
2021/03/26 00:46:59;;;;;;;84.65;53.05;;;;;;;2.70;69.39;99981.05;470723;1171;113645;-66
2021/03/26 00:57:03;;;;;;;93.30;58.80;;;;;;;2.87;69.95;99978.85;470736;1170;113780;-64
2021/03/26 01:07:22;;;;;;;86.73;53.97;;;;;;;3.07;69.66;99974.89;470817;1171;114124;-63
2021/03/26 01:17:26;;;;;;;87.10;53.10;;;;;;;3.13;69.80;99966.95;470364;1171;114024;-65
2021/03/26 01:27:30;;;;;;;79.95;51.20;;;;;;;3.00;69.68;99968.15;470037;1171;114100;-65
2021/03/26 01:37:39;;;;;;;77.20;47.47;;;;;;;2.69;69.38;99977.58;469976;1173;114063;-62
2021/03/26 01:47:44;;;;;;;84.73;50.20;;;;;;;2.38;69.33;99981.79;470321;1171;114148;-64
2021/03/26 01:57:48;;;;;;;83.70;51.10;;;;;;;2.26;69.28;99986.43;470048;1171;113590;-63
2021/03/26 02:08:04;;;;;;;81.90;50.15;;;;;;;2.23;69.86;99988.18;469929;1171;114023;-63
2021/03/26 02:18:08;;;;;;;79.60;48.50;;;;;;;2.20;70.33;99987.42;469949;1170;114385;-65
2021/03/26 02:28:14;;;;;;;73.03;47.40;;;;;;;2.21;69.90;99989.13;470417;1170;113867;-64
2021/03/26 02:38:28;;;;;;;75.73;49.37;;;;;;;2.31;69.93;99985.44;469920;1171;113708;-65
2021/03/26 02:48:49;;;;;;;82.68;51.48;;;;;;;2.37;70.38;99987.03;470113;1171;113990;-65
2021/03/26 02:58:59;;;;;;;76.93;48.97;;;;;;;2.35;69.98;99989.64;470042;1171;115221;-64
2021/03/26 03:09:06;;;;;;;78.70;51.87;;;;;;;2.38;69.89;99999.09;470176;1171;113634;-65
2021/03/26 03:19:14;;;;;;;;;;;;;;;2.34;70.61;99997.44;469840;1171;114045;-63
2021/03/26 03:29:32;;;;;;;81.70;51.33;;;;;;;2.44;70.65;100000.69;471784;1171;100364;-64
2021/03/26 03:39:44;;;;;;;80.80;50.47;;;;;;;2.57;70.83;99998.63;470226;1171;113932;-65
2021/03/26 03:49:55;;;;;;;87.00;51.90;;;;;;;2.80;70.84;99992.89;471258;1171;114153;-65
2021/03/26 04:00:05;;;;;;;77.83;50.73;;;;;;;3.10;71.00;99982.58;470352;1171;113801;-65
2021/03/26 04:10:13;;;;;;;78.10;49.70;;;;;;;3.34;70.87;99981.07;470206;1171;114866;-64
2021/03/26 04:20:23;;;;;;;76.27;49.33;;;;;;;3.54;70.68;99991.78;469996;1171;114473;-65
2021/03/26 04:30:31;;;;;;;71.57;47.67;;;;;;;3.67;70.72;99994.89;470062;1171;114258;-64
2021/03/26 04:40:40;;;;;;;80.05;51.45;;;;;;;3.79;70.34;99999.73;471269;1172;113649;-64
2021/03/26 04:50:51;;;;;;;82.43;52.23;;;;;;;3.91;70.05;99988.97;470559;1171;113657;-64
2021/03/26 05:00:59;;;;;;;79.63;48.67;;;;;;;4.07;70.34;99998.88;470449;1171;113961;-64
2021/03/26 05:11:06;;;;;;;81.97;50.90;;;;;;;4.26;69.48;99996.56;470332;1171;113657;-65
2021/03/26 05:21:15;;;;;;;78.67;46.67;;;;;;;4.52;69.44;100012.23;470265;1171;114055;-64
2021/03/26 05:31:37;;;;;;;81.57;46.77;;;;;;;4.65;69.64;100016.14;470226;1170;113817;-67
2021/03/26 05:42:00;;;;;;;81.87;50.37;;;;;;;4.72;69.03;100014.19;470553;1171;114267;-65
2021/03/26 05:52:37;;;;;;;79.07;48.53;;;;;;;4.86;68.74;100021.54;469864;1172;114300;-64
2021/03/26 06:03:20;;;;;;;86.78;51.50;;;;;;;5.15;68.75;100027.52;470231;1170;114080;-65
2021/03/26 06:13:56;;;;;;;83.53;54.00;;;;;;;7.25;68.40;100024.69;470046;1171;114141;-64
2021/03/26 06:24:41;;;;;;;73.20;50.53;;;;;;;10.17;64.04;100025.36;470100;1171;113843;-66
2021/03/26 06:35:29;;;;;;;70.37;50.73;;;;;;;12.39;60.79;100027.16;470346;1171;114351;-64
2021/03/26 06:45:44;;;;;;;62.20;48.80;;;;;;;14.55;56.58;100030.91;470325;1171;115778;-64
2021/03/26 06:56:06;;;;;;;67.50;51.33;;;;;;;16.79;52.37;100024.16;470708;1171;114842;-65
2021/03/26 07:06:45;;;;;;;67.03;51.60;;;;;;;14.74;51.43;100021.63;470554;1171;114143;-65
2021/03/26 07:17:22;;;;;;;65.07;53.93;;;;;;;17.51;49.82;100037.63;470120;1171;114033;-64
2021/03/26 07:27:49;;;;;;;73.87;56.60;;;;;;;16.90;48.47;100031.20;474675;1171;114150;-64
2021/03/26 07:38:22;;;;;;;68.30;52.50;;;;;;;16.62;47.68;100039.67;470220;1171;114704;-67
2021/03/26 07:48:45;;;;;;;71.95;51.88;;;;;;;14.95;47.74;100046.45;470357;1171;114878;-66
2021/03/26 07:59:24;;;;;;;68.63;50.73;;;;;;;13.48;49.21;100057.76;470723;1171;114146;-67
2021/03/26 08:09:49;;;;;;;75.35;53.35;;;;;;;13.00;50.46;100064.44;471075;1171;114066;-65
2021/03/26 08:20:12;;;;;;;69.70;51.60;;;;;;;15.05;49.73;100069.56;471120;1171;114728;-67
2021/03/26 08:30:32;;;;;;;54.45;42.85;;;;;;;16.51;47.10;100068.88;470929;1171;114314;-66
2021/03/26 08:40:48;;;;;;;62.30;45.13;;;;;;;15.50;46.78;100068.80;470978;1171;114218;-68
2021/03/26 08:51:08;;;;;;;52.40;41.00;;;;;;;14.89;47.03;100072.51;470981;1171;114370;-67
2021/03/26 09:01:34;;;;;;;54.03;41.23;;;;;;;15.25;47.22;100083.91;470817;1171;114551;-72
2021/03/26 09:12:00;;;;;;;50.33;40.20;;;;;;;16.10;46.38;100076.52;470677;1170;114228;-70
2021/03/26 09:22:27;;;;;;;54.57;43.77;;;;;;;16.11;45.54;100087.00;470701;1171;114996;-63
2021/03/26 09:32:33;;;;;;;55.10;42.15;;;;;;;15.89;45.59;100082.55;470790;1170;114297;-69
2021/03/26 09:42:43;;;;;;;53.20;40.70;;;;;;;15.81;45.32;100087.59;470705;1171;114651;-69
2021/03/26 09:52:47;;;;;;;53.73;37.27;;;;;;;16.42;45.19;100083.70;470821;1170;114662;-65
2021/03/26 10:03:02;;;;;;;47.00;37.20;;;;;;;16.38;43.95;100085.75;470801;1171;114698;-69
2021/03/26 10:13:11;;;;;;;47.10;37.70;;;;;;;15.66;44.24;100077.25;472204;1170;114963;-63
2021/03/26 10:23:30;;;;;;;50.13;36.60;;;;;;;15.19;44.82;100076.45;471969;1171;114722;-62
2021/03/26 10:33:47;;;;;;;51.70;40.47;;;;;;;14.67;44.82;100072.28;473884;1170;114614;-64
2021/03/26 10:44:12;;;;;;;51.97;36.83;;;;;;;14.19;45.59;100066.94;472079;1171;114250;-64
2021/03/26 10:54:23;;;;;;;52.77;39.73;;;;;;;14.14;45.74;100062.84;472299;1170;114584;-65
2021/03/26 11:04:35;;;;;;;60.05;41.10;;;;;;;13.77;46.49;100057.55;472336;1170;114435;-64
2021/03/26 11:14:50;;;;;;;53.65;41.35;;;;;;;13.54;47.17;100053.85;472363;1171;114258;-62
2021/03/26 11:25:01;;;;;;;55.17;40.60;;;;;;;13.39;47.13;100030.20;472203;1170;114634;-63
2021/03/26 11:35:14;;;;;;;55.23;40.77;;;;;;;13.49;47.23;100027.79;471764;1170;114358;-63
2021/03/26 11:45:35;;;;;;;53.77;40.60;;;;;;;13.84;47.12;100023.64;471271;1171;115081;-64
2021/03/26 11:55:43;;;;;;;51.77;36.50;;;;;;;14.18;46.81;100010.66;472047;1170;114691;-63
2021/03/26 12:06:19;;;;;;;49.87;39.83;;;;;;;14.23;46.82;100012.97;470530;1171;114368;-65
2021/03/26 12:16:41;;;;;;;49.60;36.00;;;;;;;13.90;46.54;99985.41;471650;1170;114752;-62
2021/03/26 12:26:57;;;;;;;48.50;36.00;;;;;;;13.80;46.70;99987.88;463716;1171;10001076;-62
2021/03/26 12:37:06;;;;;;;50.83;36.40;;;;;;;13.86;47.04;99975.08;471353;1170;114946;-62
2021/03/26 12:47:28;;;;;;;49.37;37.27;;;;;;;13.91;46.78;99966.83;471280;1171;114702;-61
2021/03/26 12:57:41;;;;;;;54.05;39.85;;;;;;;14.04;46.91;99958.02;470424;1171;114189;-62
2021/03/26 13:07:55;;;;;;;45.50;34.13;;;;;;;13.88;46.73;99953.83;470349;1171;115252;-61
2021/03/26 13:18:04;;;;;;;48.37;34.33;;;;;;;13.92;46.54;99954.45;471738;1171;114464;-62
2021/03/26 13:28:13;;;;;;;40.97;31.90;;;;;;;14.25;46.67;99942.38;471814;1171;115187;-61
2021/03/26 13:38:48;;;;;;;44.53;31.63;;;;;;;14.17;46.25;99944.73;470424;1170;114548;-62
2021/03/26 13:49:07;;;;;;;45.23;35.20;;;;;;;14.08;46.42;99938.34;471427;1171;115258;-62
2021/03/26 13:59:20;;;;;;;47.00;35.47;;;;;;;14.05;46.12;99923.56;470848;1171;114658;-63
2021/03/26 14:09:29;;;;;;;41.57;31.53;;;;;;;13.93;46.29;99930.59;470437;1171;114552;-63
2021/03/26 14:19:44;;;;;;;47.67;33.37;;;;;;;13.81;46.46;99913.84;470721;1171;114545;-61
2021/03/26 14:29:58;;;;;;;39.47;30.50;;;;;;;13.79;46.49;99909.63;471600;1171;114377;-62
2021/03/26 14:40:10;;;;;;;39.63;29.87;;;;;;;13.70;46.64;99893.52;472089;1171;114223;-63
2021/03/26 14:50:24;;;;;;;42.50;29.53;;;;;;;13.69;46.79;99883.06;472115;1171;115458;-65
2021/03/26 15:00:34;;;;;;;39.65;29.15;;;;;;;13.50;46.84;99894.11;470341;1171;114171;-66
2021/03/26 15:10:43;;;;;;;40.65;29.70;;;;;;;13.36;47.15;99890.64;470409;1172;115910;-63
2021/03/26 15:20:47;;;;;;;45.87;32.63;;;;;;;13.23;47.42;99882.73;470648;1171;114546;-63
2021/03/26 15:31:14;;;;;;;43.60;31.37;;;;;;;13.05;47.67;99878.78;472076;1171;114181;-63
2021/03/26 15:41:24;;;;;;;45.70;33.55;;;;;;;12.84;48.12;99874.05;472090;1171;114573;-65
2021/03/26 15:51:32;;;;;;;42.80;31.50;;;;;;;12.60;48.48;99872.14;472503;1170;114277;-60
2021/03/26 16:01:48;;;;;;;44.75;30.15;;;;;;;12.36;48.77;99875.50;470612;1171;114187;-62
2021/03/26 16:12:50;;;;;;;42.17;30.60;;;;;;;12.07;48.84;99870.36;471737;1171;114036;-67
2021/03/26 16:23:07;;;;;;;41.93;29.50;;;;;;;11.75;49.29;99868.02;470084;1171;114601;-69
2021/03/26 16:33:44;;;;;;;43.97;32.43;;;;;;;11.45;50.09;99872.50;470133;1171;114630;-70
2021/03/26 16:44:07;;;;;;;43.00;30.07;;;;;;;11.16;50.32;99867.31;470037;1170;114559;-66
2021/03/26 16:54:21;;;;;;;48.25;32.05;;;;;;;10.84;50.80;99864.88;471482;1170;114219;-64
2021/03/26 17:05:12;;;;;;;50.33;33.30;;;;;;;10.56;51.83;99868.31;455682;1171;20001879;-64
2021/03/26 17:15:37;;;;;;;43.20;30.60;;;;;;;10.29;51.88;99866.36;469797;1171;115371;-64
2021/03/26 17:26:14;;;;;;;45.75;33.05;;;;;;;10.02;52.43;99873.12;471661;1171;116205;-63
2021/03/26 17:36:48;;;;;;;42.70;31.10;;;;;;;9.82;52.80;99866.39;470089;1170;114735;-65
2021/03/26 17:47:04;;;;;;;45.07;31.53;;;;;;;9.63;53.11;99870.03;470357;1171;114786;-59
2021/03/26 17:57:33;;;;;;;42.60;28.05;;;;;;;9.46;53.51;99883.22;471098;1171;114386;-60
2021/03/26 18:07:46;;;;;;;43.00;27.53;;;;;;;9.30;53.39;99884.06;470837;1171;113957;-64
2021/03/26 18:18:09;;;;;;;41.30;29.00;;;;;;;9.10;53.47;99882.52;471106;1171;114256;-63
2021/03/26 18:28:43;;;;;;;41.85;28.20;;;;;;;8.90;53.96;99891.44;471580;1171;114515;-72
2021/03/26 18:38:59;;;;;;;41.57;28.17;;;;;;;8.65;54.04;99888.30;471439;1170;114962;-64
2021/03/26 18:49:29;;;;;;;42.93;30.50;;;;;;;8.55;54.28;99900.16;472130;1171;113989;-73
2021/03/26 19:00:01;;;;;;;44.87;28.53;;;;;;;8.41;54.32;99898.20;473242;1169;114333;-61
2021/03/26 19:10:21;;;;;;;46.85;28.45;;;;;;;8.34;54.43;99889.81;472855;1170;115437;-70
2021/03/26 19:20:31;;;;;;;44.50;27.15;;;;;;;8.26;54.64;99881.53;470757;1170;113907;-64
2021/03/26 19:30:58;;;;;;;48.50;30.40;;;;;;;8.16;54.48;99890.75;472374;1170;114039;-65
2021/03/26 19:41:15;;;;;;;46.80;29.95;;;;;;;8.08;54.50;99891.09;471914;1170;114104;-64
2021/03/26 19:51:44;;;;;;;46.57;29.40;;;;;;;7.93;54.82;99890.94;486571;1170;114611;-64
2021/03/26 20:01:56;;;;;;;40.93;28.60;;;;;;;7.88;55.05;99887.70;478903;1163;113926;-64
2021/03/26 20:12:17;;;;;;;46.75;29.70;;;;;;;7.90;55.12;99922.47;472934;1170;114980;-63
2021/03/26 20:22:29;;;;;;;52.30;33.90;;;;;;;7.94;55.19;99936.25;472269;1170;114290;-65
2021/03/26 20:33:10;;;;;;;54.50;34.40;;;;;;;8.02;55.30;99922.80;472698;1170;114822;-64
2021/03/26 20:43:30;;;;;;;56.63;36.73;;;;;;;8.00;55.41;99899.33;473022;1170;113953;-67
2021/03/26 20:53:48;;;;;;;55.75;35.85;;;;;;;7.85;57.82;99873.00;465249;1170;10001660;-68
2021/03/26 21:04:27;;;;;;;48.30;33.87;;;;;;;7.82;58.46;99860.09;473058;1170;114633;-71
2021/03/26 21:14:45;;;;;;;47.65;32.05;;;;;;;8.01;58.08;99853.11;473167;1170;114584;-72
2021/03/26 21:25:00;;;;;;;49.23;32.20;;;;;;;8.09;57.75;99858.82;472840;1170;114439;-68
2021/03/26 21:35:11;;;;;;;49.93;33.17;;;;;;;8.08;58.35;99863.19;473303;1170;115090;-68
2021/03/26 21:45:32;;;;;;;52.05;35.10;;;;;;;7.93;59.27;99848.27;472889;1170;114249;-63
2021/03/26 21:56:00;;;;;;;50.87;33.93;;;;;;;7.76;59.32;99836.02;473179;1170;113751;-68
2021/03/26 22:06:20;;;;;;;53.80;35.53;;;;;;;7.67;59.38;99835.53;472665;1170;113910;-69
2021/03/26 22:16:39;;;;;;;58.20;36.60;;;;;;;7.59;59.27;99842.05;472440;1170;113807;-68
2021/03/26 22:26:53;;;;;;;49.20;34.40;;;;;;;7.50;59.28;99833.72;472395;1170;115534;-69
2021/03/26 22:37:02;;;;;;;49.60;33.65;;;;;;;7.47;58.91;99828.65;472694;1170;113824;-68
2021/03/26 22:47:25;;;;;;;50.80;33.10;;;;;;;7.46;58.75;99820.88;472920;1171;114636;-68
2021/03/26 22:57:37;;;;;;;45.95;31.75;;;;;;;7.30;58.47;99824.22;471454;1170;113918;-68
2021/03/26 23:07:43;;;;;;;51.17;32.80;;;;;;;7.00;58.74;99819.48;471278;1171;114225;-68
2021/03/26 23:17:54;;;;;;;42.97;29.97;;;;;;;6.70;58.57;99818.19;471379;1171;114645;-67
2021/03/26 23:28:06;;;;;;;48.23;32.97;;;;;;;6.58;59.42;99810.90;471185;1171;114447;-69
2021/03/26 23:38:18;;;;;;;50.60;33.73;;;;;;;6.50;59.48;99798.20;471194;1171;114175;-69
2021/03/26 23:48:27;;;;;;;53.37;34.53;;;;;;;6.23;59.91;99795.84;471452;1171;114246;-63
2021/03/26 23:58:41;;;;;;;48.63;32.67;;;;;;;5.99;60.15;99789.90;470931;1171;114582;-66
